createdAt,value
2018-03-15T00:00:41.648Z,-0.30
2018-03-15T00:03:14.770Z,-0.40
2018-03-15T00:05:43.196Z,-0.40
2018-03-15T00:08:10.836Z,-0.40
2018-03-15T00:10:38.426Z,-0.30
2018-03-15T00:13:06.052Z,-0.30
2018-03-15T00:15:33.644Z,-0.30
2018-03-15T00:18:01.282Z,-0.30
2018-03-15T00:20:28.886Z,-0.30
2018-03-15T00:22:56.527Z,-0.30
2018-03-15T00:25:25.033Z,-0.20
2018-03-15T00:27:52.656Z,-0.30
2018-03-15T00:30:20.327Z,-0.20
2018-03-15T00:32:48.716Z,-0.30
2018-03-15T00:35:17.119Z,-0.30
2018-03-15T00:37:44.711Z,-0.30
2018-03-15T00:40:13.104Z,-0.30
2018-03-15T00:42:40.736Z,-0.30
2018-03-15T00:45:08.315Z,-0.30
2018-03-15T00:47:35.940Z,-0.30
2018-03-15T00:50:03.522Z,-0.30
2018-03-15T00:52:31.153Z,-0.30
2018-03-15T00:54:58.772Z,-0.30
2018-03-15T00:57:26.426Z,-0.30
2018-03-15T00:59:54.042Z,-0.30
2018-03-15T01:02:21.692Z,-0.20
2018-03-15T01:04:49.324Z,-0.20
2018-03-15T01:07:16.910Z,-0.20
2018-03-15T01:09:44.577Z,-0.20
2018-03-15T01:12:12.953Z,-0.10
2018-03-15T01:14:41.307Z,-0.10
2018-03-15T01:17:08.934Z,-0.20
2018-03-15T01:19:36.574Z,-0.10
2018-03-15T01:22:04.153Z,-0.10
2018-03-15T01:24:31.779Z,-0.10
2018-03-15T01:27:01.936Z,-0.20
2018-03-15T01:29:29.687Z,-0.20
2018-03-15T01:31:57.259Z,-0.20
2018-03-15T01:34:24.904Z,-0.20
2018-03-15T01:36:52.497Z,-0.20
2018-03-15T01:39:20.151Z,-0.20
2018-03-15T01:41:47.771Z,-0.30
2018-03-15T01:44:15.384Z,-0.30
2018-03-15T01:46:43.021Z,-0.30
2018-03-15T01:49:10.659Z,-0.30
2018-03-15T01:51:39.105Z,-0.30
2018-03-15T01:54:06.704Z,-0.30
2018-03-15T01:56:35.110Z,-0.30
2018-03-15T01:59:02.692Z,-0.30
2018-03-15T02:01:30.306Z,-0.30
2018-03-15T02:03:57.888Z,-0.30
2018-03-15T02:06:25.518Z,-0.30
2018-03-15T02:08:53.140Z,-0.30
2018-03-15T02:11:20.789Z,-0.30
2018-03-15T02:13:48.404Z,-0.40
2018-03-15T02:16:16.090Z,-0.40
2018-03-15T02:18:43.711Z,-0.40
2018-03-15T02:21:11.475Z,-0.40
2018-03-15T02:23:39.064Z,-0.40
2018-03-15T02:26:07.454Z,-0.40
2018-03-15T02:28:35.032Z,-0.40
2018-03-15T02:31:02.658Z,-0.30
2018-03-15T02:33:31.011Z,-0.20
2018-03-15T02:35:58.637Z,-0.20
2018-03-15T02:38:26.226Z,-0.20
2018-03-15T02:40:54.006Z,-0.20
2018-03-15T02:43:21.610Z,-0.20
2018-03-15T02:45:49.240Z,-0.10
2018-03-15T02:48:17.595Z,0.00
2018-03-15T02:50:45.181Z,-0.10
2018-03-15T02:53:12.833Z,0.00
2018-03-15T02:55:40.466Z,-0.10
2018-03-15T02:58:08.099Z,-0.10
2018-03-15T03:00:35.719Z,-0.10
2018-03-15T03:03:03.398Z,-0.20
2018-03-15T03:05:31.001Z,-0.20
2018-03-15T03:07:58.670Z,-0.20
2018-03-15T03:10:26.263Z,-0.20
2018-03-15T03:12:53.860Z,-0.20
2018-03-15T03:15:21.483Z,-0.20
2018-03-15T03:17:49.246Z,-0.30
2018-03-15T03:20:16.922Z,-0.30
2018-03-15T03:22:44.570Z,-0.30
2018-03-15T03:25:12.223Z,-0.30
2018-03-15T03:27:39.868Z,-0.30
2018-03-15T03:30:07.479Z,-0.30
2018-03-15T03:32:35.295Z,-0.30
2018-03-15T03:35:02.975Z,-0.30
2018-03-15T03:37:30.563Z,-0.30
2018-03-15T03:39:58.158Z,-0.30
2018-03-15T03:42:25.783Z,-0.30
2018-03-15T03:44:53.379Z,-0.30
2018-03-15T03:47:21.087Z,-0.30
2018-03-15T03:49:48.835Z,-0.30
2018-03-15T03:52:16.526Z,-0.30
2018-03-15T03:54:44.109Z,-0.30
2018-03-15T03:57:11.705Z,-0.30
2018-03-15T03:59:39.327Z,-0.30
2018-03-15T04:02:06.982Z,-0.40
2018-03-15T04:04:34.554Z,-0.40
2018-03-15T04:07:02.187Z,-0.50
2018-03-15T04:09:29.782Z,-0.50
2018-03-15T04:11:57.366Z,-0.50
2018-03-15T04:14:25.011Z,-0.60
2018-03-15T04:16:52.693Z,-0.50
2018-03-15T04:19:20.312Z,-0.50
2018-03-15T04:21:47.927Z,-0.40
2018-03-15T04:24:15.556Z,-0.50
2018-03-15T04:26:43.912Z,-0.50
2018-03-15T04:29:11.491Z,-0.50
2018-03-15T04:31:39.136Z,-0.40
2018-03-15T04:34:06.740Z,-0.50
2018-03-15T04:36:34.368Z,-0.50
2018-03-15T04:39:01.943Z,-0.40
2018-03-15T04:41:29.566Z,-0.40
2018-03-15T04:43:57.155Z,-0.30
2018-03-15T04:46:24.740Z,-0.30
2018-03-15T04:48:52.360Z,-0.30
2018-03-15T04:51:19.947Z,-0.20
2018-03-15T04:53:47.634Z,-0.20
2018-03-15T04:56:15.210Z,-0.30
2018-03-15T04:58:42.830Z,-0.30
2018-03-15T05:01:10.437Z,-0.30
2018-03-15T05:03:38.092Z,-0.30
2018-03-15T05:06:05.767Z,-0.30
2018-03-15T05:08:33.395Z,-0.30
2018-03-15T05:11:01.032Z,-0.30
2018-03-15T05:13:28.640Z,-0.30
2018-03-15T05:15:56.271Z,-0.30
2018-03-15T05:18:23.900Z,-0.20
2018-03-15T05:20:51.574Z,-0.20
2018-03-15T05:23:19.283Z,-0.20
2018-03-15T05:25:46.870Z,-0.10
2018-03-15T05:28:14.522Z,-0.20
2018-03-15T05:30:42.198Z,-0.20
2018-03-15T05:33:09.817Z,-0.20
2018-03-15T05:35:38.235Z,-0.20
2018-03-15T05:38:05.942Z,-0.20
2018-03-15T05:40:33.558Z,-0.10
2018-03-15T05:43:01.200Z,-0.10
2018-03-15T05:45:28.780Z,-0.10
2018-03-15T05:47:56.364Z,-0.10
2018-03-15T05:50:23.986Z,-0.10
2018-03-15T05:52:51.586Z,-0.10
2018-03-15T05:55:19.250Z,-0.10
2018-03-15T05:57:46.902Z,-0.10
2018-03-15T06:00:14.520Z,0.00
2018-03-15T06:02:42.150Z,0.10
2018-03-15T06:05:09.752Z,0.10
2018-03-15T06:07:37.389Z,0.10
2018-03-15T06:10:05.744Z,0.20
2018-03-15T06:12:33.372Z,0.20
2018-03-15T06:15:01.017Z,0.20
2018-03-15T06:17:28.637Z,0.30
2018-03-15T06:19:56.226Z,0.30
2018-03-15T06:22:24.667Z,0.40
2018-03-15T06:24:52.351Z,0.40
2018-03-15T06:27:20.782Z,0.50
2018-03-15T06:29:48.412Z,0.50
2018-03-15T06:32:16.047Z,0.60
2018-03-15T06:34:43.649Z,0.60
2018-03-15T06:37:11.283Z,0.50
2018-03-15T06:39:39.676Z,0.60
2018-03-15T06:42:07.323Z,0.60
2018-03-15T06:44:35.671Z,0.70
2018-03-15T06:47:03.292Z,0.70
2018-03-15T06:49:30.887Z,0.70
2018-03-15T06:51:58.528Z,0.80
2018-03-15T06:54:26.143Z,0.80
2018-03-15T06:56:53.721Z,0.80
2018-03-15T06:59:21.540Z,0.90
2018-03-15T07:01:49.134Z,1.00
2018-03-15T07:04:16.773Z,1.00
2018-03-15T07:06:45.240Z,1.10
2018-03-15T07:09:12.855Z,1.10
2018-03-15T07:11:40.454Z,1.20
2018-03-15T07:14:08.119Z,1.20
2018-03-15T07:16:35.730Z,1.30
2018-03-15T07:19:03.450Z,1.30
2018-03-15T07:21:31.282Z,1.40
2018-03-15T07:23:58.919Z,1.50
2018-03-15T07:26:26.495Z,1.50
2018-03-15T07:28:55.139Z,1.70
2018-03-15T07:31:22.740Z,1.60
2018-03-15T07:33:50.314Z,1.70
2018-03-15T07:36:17.932Z,1.80
2018-03-15T07:38:45.555Z,1.80
2018-03-15T07:41:13.261Z,1.90
2018-03-15T07:43:40.828Z,2.00
2018-03-15T07:46:10.927Z,2.10
2018-03-15T07:48:38.542Z,2.20
2018-03-15T07:51:06.163Z,2.20
2018-03-15T07:53:33.779Z,2.30
2018-03-15T07:56:01.423Z,2.40
2018-03-15T07:58:28.991Z,2.40
2018-03-15T08:00:56.603Z,2.40
2018-03-15T08:03:24.179Z,2.50
2018-03-15T08:05:51.797Z,2.60
2018-03-15T08:08:19.420Z,2.70
2018-03-15T08:10:47.824Z,2.80
2018-03-15T08:13:15.400Z,2.80
2018-03-15T08:15:42.973Z,2.90
2018-03-15T08:18:10.632Z,2.90
2018-03-15T08:20:38.239Z,3.00
2018-03-15T08:23:05.898Z,3.00
2018-03-15T08:25:33.517Z,3.10
2018-03-15T08:28:01.135Z,3.20
2018-03-15T08:30:29.480Z,3.40
2018-03-15T08:32:57.123Z,3.30
2018-03-15T08:35:24.700Z,3.40
2018-03-15T08:37:52.352Z,3.50
2018-03-15T08:40:19.930Z,3.60
2018-03-15T08:42:47.637Z,3.70
2018-03-15T08:45:15.220Z,3.80
2018-03-15T08:47:43.253Z,3.90
2018-03-15T08:50:10.883Z,3.90
2018-03-15T08:52:38.520Z,4.00
2018-03-15T08:55:06.168Z,4.20
2018-03-15T08:57:33.750Z,4.20
2018-03-15T09:00:01.481Z,4.20
2018-03-15T09:02:29.111Z,4.30
2018-03-15T09:04:56.727Z,4.30
2018-03-15T09:07:24.409Z,4.40
2018-03-15T09:09:52.068Z,4.40
2018-03-15T09:12:19.682Z,4.50
2018-03-15T09:14:48.066Z,4.70
2018-03-15T09:17:15.700Z,4.70
2018-03-15T09:19:43.317Z,4.80
2018-03-15T09:22:10.891Z,4.90
2018-03-15T09:24:38.519Z,4.90
2018-03-15T09:27:06.183Z,5.00
2018-03-15T09:29:33.756Z,5.00
2018-03-15T09:32:01.409Z,5.10
2018-03-15T09:34:29.086Z,5.20
2018-03-15T09:36:56.621Z,5.20
2018-03-15T09:39:24.260Z,5.20
2018-03-15T09:41:52.655Z,5.30
2018-03-15T09:44:20.304Z,5.30
2018-03-15T09:46:47.953Z,5.40
2018-03-15T09:49:15.635Z,5.50
2018-03-15T09:51:43.991Z,5.60
2018-03-15T09:54:12.430Z,5.60
2018-03-15T09:56:40.041Z,5.60
2018-03-15T09:59:07.658Z,5.70
2018-03-15T10:01:35.420Z,5.80
2018-03-15T10:04:03.067Z,5.90
2018-03-15T10:06:30.702Z,5.90
2018-03-15T10:08:58.484Z,5.90
2018-03-15T10:11:26.044Z,6.00
2018-03-15T10:13:53.702Z,6.10
2018-03-15T10:16:21.349Z,6.10
2018-03-15T10:18:49.737Z,6.10
2018-03-15T10:21:17.398Z,6.10
2018-03-15T10:23:45.029Z,6.20
2018-03-15T10:26:14.712Z,6.30
2018-03-15T10:28:42.314Z,6.30
2018-03-15T10:31:10.716Z,6.40
2018-03-15T10:33:39.116Z,6.50
2018-03-15T10:36:06.716Z,6.50
2018-03-15T10:38:34.347Z,6.50
2018-03-15T10:41:02.268Z,6.60
2018-03-15T10:43:29.855Z,6.60
2018-03-15T10:45:57.499Z,6.60
2018-03-15T10:48:26.922Z,6.60
2018-03-15T10:50:54.509Z,6.70
2018-03-15T10:53:22.178Z,6.70
2018-03-15T10:55:49.788Z,6.80
2018-03-15T10:58:17.475Z,6.90
2018-03-15T11:00:50.732Z,7.00
2018-03-15T11:03:18.387Z,7.00
2018-03-15T11:05:46.000Z,7.10
2018-03-15T11:08:19.184Z,7.10
2018-03-15T11:10:46.869Z,7.30
2018-03-15T11:13:14.549Z,7.40
2018-03-15T11:15:42.216Z,7.30
2018-03-15T11:18:09.935Z,7.40
2018-03-15T11:20:37.479Z,7.40
2018-03-15T11:23:05.141Z,7.40
2018-03-15T11:25:32.739Z,7.40
2018-03-15T11:28:00.398Z,7.40
2018-03-15T11:30:27.984Z,7.40
2018-03-15T11:32:55.635Z,7.40
2018-03-15T11:35:23.231Z,7.40
2018-03-15T11:37:50.875Z,7.50
2018-03-15T11:40:18.597Z,7.50
2018-03-15T11:42:46.251Z,7.50
2018-03-15T11:45:16.368Z,7.70
2018-03-15T11:47:45.347Z,7.80
2018-03-15T11:50:13.905Z,7.70
2018-03-15T11:52:42.333Z,7.80
2018-03-15T11:55:10.194Z,7.80
2018-03-15T11:57:38.041Z,7.80
2018-03-15T12:00:06.722Z,7.80
2018-03-15T12:02:34.476Z,7.80
2018-03-15T12:05:02.592Z,7.90
2018-03-15T12:07:31.656Z,7.90
2018-03-15T12:10:00.132Z,8.00
2018-03-15T12:12:28.138Z,7.90
2018-03-15T12:14:55.878Z,7.90
2018-03-15T12:17:24.958Z,8.00
2018-03-15T12:19:53.287Z,7.90
2018-03-15T12:22:21.138Z,8.00
2018-03-15T12:24:48.964Z,8.00
2018-03-15T12:27:16.670Z,8.00
2018-03-15T12:29:44.538Z,8.10
2018-03-15T12:32:12.268Z,8.10
2018-03-15T12:34:40.097Z,8.10
2018-03-15T12:37:07.938Z,8.00
2018-03-15T12:39:35.639Z,8.10
2018-03-15T12:42:03.346Z,8.10
2018-03-15T12:44:31.032Z,8.20
2018-03-15T12:46:59.411Z,8.20
2018-03-15T12:49:27.210Z,8.20
2018-03-15T12:51:54.880Z,8.30
2018-03-15T12:54:22.549Z,8.30
2018-03-15T12:56:50.257Z,8.30
2018-03-15T12:59:17.969Z,8.30
2018-03-15T13:01:45.632Z,8.30
2018-03-15T13:04:13.263Z,8.30
2018-03-15T13:06:41.559Z,8.30
2018-03-15T13:09:09.243Z,8.20
2018-03-15T13:11:36.943Z,8.20
2018-03-15T13:14:05.350Z,8.20
2018-03-15T13:16:32.989Z,8.20
2018-03-15T13:19:00.699Z,8.20
2018-03-15T13:21:28.381Z,8.20
2018-03-15T13:23:56.103Z,8.20
2018-03-15T13:26:23.811Z,8.20
2018-03-15T13:28:51.645Z,8.20
2018-03-15T13:31:19.255Z,8.30
2018-03-15T13:33:46.917Z,8.40
2018-03-15T13:36:14.530Z,8.40
2018-03-15T13:38:42.177Z,8.40
2018-03-15T13:41:09.950Z,8.30
2018-03-15T13:43:37.750Z,8.30
2018-03-15T13:46:05.460Z,8.30
2018-03-15T13:48:33.133Z,8.40
2018-03-15T13:51:00.753Z,8.30
2018-03-15T13:53:28.468Z,8.40
2018-03-15T13:55:56.217Z,8.30
2018-03-15T13:58:24.935Z,8.30
2018-03-15T14:00:52.589Z,8.30
2018-03-15T14:03:21.151Z,8.20
2018-03-15T14:05:48.933Z,8.30
2018-03-15T14:08:16.726Z,8.30
2018-03-15T14:10:44.317Z,8.20
2018-03-15T14:13:11.977Z,8.20
2018-03-15T14:15:39.611Z,8.20
2018-03-15T14:18:07.222Z,8.20
2018-03-15T14:20:35.673Z,8.10
2018-03-15T14:23:03.285Z,8.10
2018-03-15T14:25:30.864Z,8.10
2018-03-15T14:27:58.474Z,8.10
2018-03-15T14:30:26.052Z,8.10
2018-03-15T14:32:54.428Z,8.00
2018-03-15T14:35:22.772Z,8.00
2018-03-15T14:37:50.411Z,7.90
2018-03-15T14:40:18.034Z,8.00
2018-03-15T14:42:46.402Z,8.00
2018-03-15T14:45:14.743Z,8.10
2018-03-15T14:47:42.675Z,8.10
2018-03-15T14:50:10.251Z,8.10
2018-03-15T14:52:37.885Z,8.10
2018-03-15T14:55:05.545Z,8.10
2018-03-15T14:57:33.961Z,8.20
2018-03-15T15:00:03.439Z,8.10
2018-03-15T15:02:33.319Z,8.20
2018-03-15T15:05:01.396Z,8.20
2018-03-15T15:07:29.738Z,8.20
2018-03-15T15:09:57.748Z,8.20
2018-03-15T15:12:25.874Z,8.20
2018-03-15T15:14:57.092Z,8.10
2018-03-15T15:17:28.210Z,8.10
2018-03-15T15:19:57.797Z,8.00
2018-03-15T15:22:26.774Z,7.90
2018-03-15T15:24:54.922Z,7.90
2018-03-15T15:27:23.065Z,7.80
2018-03-15T15:29:51.291Z,7.80
2018-03-15T15:32:19.170Z,7.80
2018-03-15T15:34:47.188Z,7.80
2018-03-15T15:37:15.413Z,7.70
2018-03-15T15:39:43.506Z,7.70
2018-03-15T15:42:11.415Z,7.60
2018-03-15T15:44:39.475Z,7.60
2018-03-15T15:47:07.569Z,7.50
2018-03-15T15:49:35.562Z,7.50
2018-03-15T15:52:03.765Z,7.40
2018-03-15T15:54:31.751Z,7.40
2018-03-15T15:56:59.412Z,7.40
2018-03-15T15:59:27.032Z,7.30
2018-03-15T16:01:54.613Z,7.30
2018-03-15T16:04:22.237Z,7.30
2018-03-15T16:06:49.851Z,7.30
2018-03-15T16:09:17.434Z,7.20
2018-03-15T16:11:45.045Z,7.20
2018-03-15T16:14:12.757Z,7.10
2018-03-15T16:16:41.141Z,7.00
2018-03-15T16:19:09.494Z,6.90
2018-03-15T16:21:37.157Z,6.90
2018-03-15T16:24:04.726Z,6.80
2018-03-15T16:26:33.100Z,6.70
2018-03-15T16:29:00.710Z,6.70
2018-03-15T16:31:28.278Z,6.70
2018-03-15T16:33:55.897Z,6.70
2018-03-15T16:36:23.509Z,6.60
2018-03-15T16:38:51.104Z,6.50
2018-03-15T16:41:18.955Z,6.50
2018-03-15T16:43:48.011Z,6.40
2018-03-15T16:46:16.255Z,6.30
2018-03-15T16:48:43.838Z,6.20
2018-03-15T16:51:12.259Z,6.00
2018-03-15T16:53:39.831Z,6.00
2018-03-15T16:56:07.438Z,5.90
2018-03-15T16:58:35.091Z,5.80
2018-03-15T17:01:02.676Z,5.70
2018-03-15T17:03:30.292Z,5.60
2018-03-15T17:05:57.867Z,5.50
2018-03-15T17:08:25.485Z,5.50
2018-03-15T17:10:53.081Z,5.40
2018-03-15T17:13:20.710Z,5.30
2018-03-15T17:15:48.275Z,5.30
2018-03-15T17:18:15.856Z,5.20
2018-03-15T17:20:43.527Z,5.10
2018-03-15T17:23:11.107Z,5.10
2018-03-15T17:25:39.448Z,5.00
2018-03-15T17:28:07.069Z,5.00
2018-03-15T17:30:34.648Z,4.90
2018-03-15T17:33:02.266Z,4.80
2018-03-15T17:35:30.657Z,4.80
2018-03-15T17:37:58.269Z,4.80
2018-03-15T17:40:25.883Z,4.70
2018-03-15T17:42:54.288Z,4.70
2018-03-15T17:45:21.867Z,4.70
2018-03-15T17:47:49.496Z,4.60
2018-03-15T17:50:17.139Z,4.60
2018-03-15T17:52:44.802Z,4.50
2018-03-15T17:55:12.403Z,4.50
2018-03-15T17:57:40.144Z,4.50
2018-03-15T18:00:08.305Z,4.40
2018-03-15T18:02:35.946Z,4.40
2018-03-15T18:05:03.579Z,4.40
2018-03-15T18:07:31.151Z,4.40
2018-03-15T18:09:58.783Z,4.40
2018-03-15T18:12:26.408Z,4.30
2018-03-15T18:14:54.759Z,4.30
2018-03-15T18:17:22.377Z,4.30
2018-03-15T18:19:50.010Z,4.30
2018-03-15T18:22:18.349Z,4.20
2018-03-15T18:24:45.995Z,4.20
2018-03-15T18:27:13.573Z,4.20
2018-03-15T18:29:41.203Z,4.20
2018-03-15T18:32:08.822Z,4.20
2018-03-15T18:34:36.597Z,4.20
2018-03-15T18:37:04.985Z,4.20
2018-03-15T18:39:33.348Z,4.20
2018-03-15T18:42:01.351Z,4.20
2018-03-15T18:44:29.189Z,4.20
2018-03-15T18:46:58.160Z,4.20
2018-03-15T18:49:25.812Z,4.20
2018-03-15T18:51:53.554Z,4.10
2018-03-15T18:54:21.172Z,4.10
2018-03-15T18:56:48.752Z,4.10
2018-03-15T18:59:16.327Z,4.00
2018-03-15T19:01:43.947Z,4.00
2018-03-15T19:04:11.525Z,3.90
2018-03-15T19:06:39.144Z,3.90
2018-03-15T19:09:06.725Z,3.90
2018-03-15T19:11:34.358Z,3.90
2018-03-15T19:14:01.949Z,3.90
2018-03-15T19:16:29.524Z,3.80
2018-03-15T19:18:57.910Z,3.70
2018-03-15T19:21:26.261Z,3.70
2018-03-15T19:23:53.879Z,3.70
2018-03-15T19:26:21.507Z,3.70
2018-03-15T19:28:49.088Z,3.70
2018-03-15T19:31:16.698Z,3.60
2018-03-15T19:33:44.315Z,3.50
2018-03-15T19:36:11.905Z,3.50
2018-03-15T19:38:39.516Z,3.50
2018-03-15T19:41:07.899Z,3.50
2018-03-15T19:43:35.562Z,3.40
2018-03-15T19:46:03.924Z,3.40
2018-03-15T19:48:31.507Z,3.40
2018-03-15T19:50:59.894Z,3.40
2018-03-15T19:53:28.287Z,3.40
2018-03-15T19:55:55.906Z,3.40
2018-03-15T19:58:23.523Z,3.40
2018-03-15T20:00:51.148Z,3.30
2018-03-15T20:03:19.509Z,3.30
2018-03-15T20:05:47.126Z,3.30
2018-03-15T20:08:14.700Z,3.20
2018-03-15T20:10:42.378Z,3.10
2018-03-15T20:13:09.948Z,3.10
2018-03-15T20:15:43.240Z,3.10
2018-03-15T20:18:10.903Z,3.10
2018-03-15T20:20:38.480Z,3.10
2018-03-15T20:23:11.782Z,3.00
2018-03-15T20:25:40.117Z,3.00
2018-03-15T20:28:13.387Z,2.90
2018-03-15T20:30:40.961Z,2.90
2018-03-15T20:33:14.279Z,2.90
2018-03-15T20:35:41.847Z,2.80
2018-03-15T20:38:09.460Z,2.80
2018-03-15T20:40:42.638Z,2.80
2018-03-15T20:43:11.041Z,2.80
2018-03-15T20:45:44.231Z,2.80
2018-03-15T20:48:17.403Z,2.80
2018-03-15T20:50:45.741Z,2.90
2018-03-15T20:53:13.393Z,2.90
2018-03-15T20:55:40.976Z,3.00
2018-03-15T20:58:08.581Z,3.00
2018-03-15T21:00:36.195Z,3.00
2018-03-15T21:03:03.800Z,3.00
2018-03-15T21:05:31.444Z,3.00
2018-03-15T21:07:59.782Z,3.00
2018-03-15T21:10:27.443Z,3.00
2018-03-15T21:12:55.051Z,3.00
2018-03-15T21:15:23.400Z,3.10
2018-03-15T21:17:51.136Z,3.00
2018-03-15T21:20:18.720Z,3.10
2018-03-15T21:22:46.340Z,3.10
2018-03-15T21:25:13.974Z,3.10
2018-03-15T21:27:41.561Z,3.10
2018-03-15T21:30:09.159Z,3.10
2018-03-15T21:32:36.765Z,3.10
2018-03-15T21:35:05.108Z,3.20
2018-03-15T21:37:32.733Z,3.20
2018-03-15T21:40:00.302Z,3.20
2018-03-15T21:42:27.925Z,3.30
2018-03-15T21:44:56.273Z,3.20
2018-03-15T21:47:23.887Z,3.20
2018-03-15T21:49:51.465Z,3.20
2018-03-15T21:52:19.082Z,3.20
2018-03-15T21:54:46.661Z,3.20
2018-03-15T21:57:14.281Z,3.20
2018-03-15T21:59:42.319Z,3.20
2018-03-15T22:02:09.900Z,3.30
2018-03-15T22:04:37.631Z,3.30
2018-03-15T22:07:05.690Z,3.30
2018-03-15T22:09:33.485Z,3.40
2018-03-15T22:12:01.076Z,3.40
2018-03-15T22:14:28.720Z,3.40
2018-03-15T22:16:56.509Z,3.40
2018-03-15T22:19:24.440Z,3.40
2018-03-15T22:21:52.178Z,3.40
2018-03-15T22:24:19.751Z,3.40
2018-03-15T22:26:47.373Z,3.40
2018-03-15T22:29:15.177Z,3.40
2018-03-15T22:31:43.128Z,3.50
2018-03-15T22:34:10.734Z,3.50
2018-03-15T22:36:38.356Z,3.50
2018-03-15T22:39:06.711Z,3.50
2018-03-15T22:44:08.316Z,3.50
2018-03-15T22:46:35.988Z,3.60
2018-03-15T22:49:03.564Z,3.60
2018-03-15T22:51:31.193Z,3.70
2018-03-15T22:53:58.766Z,3.70
2018-03-15T22:56:26.387Z,3.70
2018-03-15T22:58:53.967Z,3.70
2018-03-15T23:01:23.400Z,3.70
2018-03-15T23:03:51.042Z,3.70
2018-03-15T23:06:18.627Z,3.80
2018-03-15T23:08:46.256Z,3.80
2018-03-15T23:11:13.827Z,3.80
2018-03-15T23:13:41.492Z,3.80
2018-03-15T23:16:09.072Z,3.80
2018-03-15T23:18:36.688Z,3.80
2018-03-15T23:21:04.289Z,3.80
2018-03-15T23:23:31.911Z,3.80
2018-03-15T23:25:59.490Z,3.70
2018-03-15T23:28:27.831Z,3.80
2018-03-15T23:30:55.444Z,3.70
2018-03-15T23:33:23.072Z,3.70
2018-03-15T23:35:51.459Z,3.70
2018-03-15T23:38:19.098Z,3.70
2018-03-15T23:40:46.711Z,3.80
2018-03-15T23:43:14.343Z,3.80
2018-03-15T23:45:41.928Z,3.80
2018-03-15T23:48:09.504Z,3.80
2018-03-15T23:50:37.128Z,3.80
2018-03-15T23:53:05.481Z,3.80
2018-03-15T23:55:33.123Z,3.80
2018-03-15T23:58:01.538Z,3.80
